Data for 07/12/2013

Time Sea-Level Adjusted Pressure Absolute Pressure Temperature Relative Humidity Dew Point   
(mb) (inHg) (mb) (inHg) (C) (F) (%) (C) (F)
00:05 1017 30.03 847 25.01 16.1 60.9 57 7.7 45.9
00:10 1017 30.03 847 25.01 15.7 60.2 56 6.9 44.4
00:15 1017 30.03 847 25.01 15.8 60.4 56 7.2 44.9
00:20 1018 30.06 847 25.01 15.8 60.4 56 7 44.6
00:25 1018 30.06 847 25.01 15.8 60.5 56 7.1 44.7
00:30 1018 30.06 847 25.01 15.8 60.4 56 7.1 44.7
00:35 1018 30.06 847 25.01 15.7 60.2 57 7.2 44.9
00:40 1018 30.06 847 25.01 15.5 59.9 56 6.9 44.3
00:45 1018 30.06 847 25.01 15.7 60.3 56 7.1 44.8
00:50 1018 30.06 847 25.01 15.7 60.3 55 6.7 44
00:55 1017 30.03 847 25.01 16.1 60.9 54 6.8 44.3
01:00 1017 30.03 847 25.01 16.2 61.1 51 6.1 43
01:05 1017 30.03 847 25.01 16.4 61.6 52 6.8 44.2
01:10 1017 30.03 847 25.01 16.4 61.5 51 6.4 43.6
01:15 1018 30.06 847 25.01 16.2 61.2 54 6.9 44.5
01:20 1018 30.06 847 25.01 16 60.7 54 6.8 44.3
01:25 1017 30.03 847 25.01 16 60.7 54 6.7 44.1
01:30 1017 30.03 847 25.01 16 60.8 54 6.9 44.4
01:35 1017 30.03 847 25.01 15.8 60.4 55 6.8 44.3
01:40 1017 30.03 847 25.01 15.8 60.4 55 6.8 44.2
01:45 1017 30.03 847 25.01 15.8 60.4 55 6.9 44.5
01:50 1017 30.03 847 25.01 15.7 60.3 56 7.1 44.8
01:55 1017 30.03 846 24.98 15.4 59.8 57 7 44.6
02:00 1017 30.03 846 24.98 15.2 59.4 58 7 44.6
02:05 1017 30.03 846 24.98 15.1 59.2 58 7 44.7
02:10 1017 30.03 847 25.01 14.9 58.9 60 7.4 45.3
02:15 1017 30.03 847 25.01 14.9 58.9 59 7.1 44.8
02:20 1017 30.03 847 25.01 14.9 58.8 60 7.2 44.9
02:25 1017 30.03 847 25.01 14.5 58.1 62 7.5 45.5
02:30 1017 30.03 847 25.01 14.2 57.6 62 7 44.7
02:35 1017 30.03 847 25.01 14.4 58 58 6.3 43.4
02:40 1017 30.03 847 25.01 15.1 59.1 57 6.6 43.9
02:45 1017 30.03 847 25.01 15 59 58 6.9 44.4
02:50 1017 30.03 847 25.01 14.7 58.4 58 6.6 43.9
02:55 1017 30.03 847 25.01 14.6 58.3 59 6.8 44.2
03:00 1017 30.03 847 25.01 14.4 57.9 60 6.8 44.3
03:05 1017 30.03 847 25.01 14.2 57.5 61 6.8 44.3
03:10 1017 30.03 847 25.01 14.1 57.3 62 6.9 44.4
03:15 1017 30.03 847 25.01 13.9 57.1 63 7 44.5
03:20 1017 30.03 846 24.98 13.7 56.7 63 6.9 44.4
03:25 1017 30.03 846 24.98 13.7 56.7 62 6.7 44
03:30 1017 30.03 846 24.98 13.9 57.1 61 6.7 44.1
03:35 1017 30.03 846 24.98 14 57.3 61 6.7 44
03:40 1017 30.03 846 24.98 14 57.2 61 6.7 44.1
03:45 1017 30.03 846 24.98 14.1 57.3 60 6.6 43.9
03:50 1017 30.03 846 24.98 14.1 57.4 60 6.6 43.9
03:55 1017 30.03 846 24.98 14.1 57.4 60 6.6 43.9
04:00 1017 30.03 846 24.98 14.2 57.5 60 6.5 43.8
04:05 1017 30.03 846 24.98 14.2 57.6 60 6.7 44
04:10 1017 30.03 846 24.98 14.2 57.5 60 6.7 44.1
04:15 1017 30.03 846 24.98 14.1 57.4 61 6.7 44.1
04:20 1017 30.03 846 24.98 14 57.3 60 6.5 43.8
04:25 1017 30.03 846 24.98 14.2 57.5 60 6.6 43.9
04:30 1017 30.03 846 24.98 14.2 57.5 60 6.6 43.8
04:35 1017 30.03 846 24.98 14.2 57.5 61 6.7 44.1
04:40 1017 30.03 846 24.98 14.1 57.4 60 6.6 43.8
04:45 1017 30.03 846 24.98 14.2 57.6 59 6.5 43.7
04:50 1017 30.03 847 25.01 14.2 57.6 59 6.5 43.7
04:55 1017 30.03 847 25.01 14.4 57.9 59 6.5 43.7
05:00 1017 30.03 847 25.01 14.6 58.2 59 6.7 44
05:05 1018 30.06 847 25.01 14.3 57.8 61 6.9 44.4
05:10 1018 30.06 847 25.01 14.2 57.5 60 6.7 44
05:15 1018 30.06 847 25.01 14.1 57.5 60 6.6 43.8
05:20 1018 30.06 847 25.01 14.3 57.7 59 6.6 43.8
05:25 1018 30.06 847 25.01 14.4 57.9 59 6.6 43.9
05:30 1018 30.06 847 25.01 14.3 57.8 59 6.6 43.9
05:35 1018 30.06 847 25.01 14.4 58 59 6.5 43.7
05:40 1018 30.06 847 25.01 14.6 58.3 59 6.7 44
05:45 1018 30.06 847 25.01 14.7 58.4 58 6.4 43.6
05:50 1018 30.06 847 25.01 14.9 58.7 58 6.8 44.3
05:55 1018 30.06 847 25.01 14.7 58.5 60 7.1 44.8
06:00 1018 30.06 847 25.01 14.6 58.3 60 7.1 44.7
06:05 1018 30.06 847 25.01 14.8 58.7 58 6.7 44
06:10 1018 30.06 847 25.01 15.1 59.3 57 6.7 44
06:15 1018 30.06 847 25.01 15.3 59.5 57 7 44.6
06:20 1018 30.06 847 25.01 15.6 60.1 57 7.1 44.8
06:25 1018 30.06 847 25.01 15.8 60.5 56 7.3 45.1
06:30 1018 30.06 847 25.01 16.1 61 55 7.2 44.9
06:35 1018 30.06 847 25.01 16.1 60.9 56 7.5 45.5
06:40 1018 30.06 847 25.01 16.1 61.1 57 7.6 45.8
06:45 1018 30.06 847 25.01 16.2 61.1 57 7.7 45.9
06:50 1018 30.06 847 25.01 16.6 61.8 56 7.8 46
06:55 1018 30.06 847 25.01 16.7 62.1 55 7.8 46
07:00 1018 30.06 847 25.01 16.9 62.3 56 8.2 46.7
07:05 1018 30.06 847 25.01 17.2 63 55 8.3 46.9
07:10 1018 30.06 847 25.01 17.4 63.3 54 8.1 46.6
07:15 1018 30.06 847 25.01 17.7 63.9 50 7.3 45.1
07:20 1018 30.06 847 25.01 18 64.4 50 7.5 45.6
07:25 1018 30.06 847 25.01 18.2 64.7 49 7.4 45.2
07:30 1018 30.06 847 25.01 19.2 66.6 48 8 46.4
07:35 1018 30.06 847 25.01 19.3 66.7 47 7.9 46.3
07:40 1018 30.06 847 25.01 19.1 66.4 49 8.1 46.6
07:45 1018 30.06 847 25.01 19.4 66.9 50 8.8 47.8
07:50 1018 30.06 847 25.01 19.6 67.3 47 8.1 46.5
07:55 1018 30.06 847 25.01 19.5 67 47 8.1 46.6
08:00 1018 30.06 847 25.01 19.6 67.3 45 7.6 45.7
08:05 1018 30.06 847 25.01 19.7 67.4 43 7 44.7
08:10 1018 30.06 847 25.01 20.2 68.4 43 7.4 45.3
08:15 1017 30.03 847 25.01 21.1 70 40 7.3 45.2
08:20 1017 30.03 847 25.01 21.1 70.1 40 7.1 44.8
08:25 1017 30.03 847 25.01 21 69.7 39 6.8 44.3
08:30 1017 30.03 847 25.01 21.5 70.6 39 7.1 44.9
08:35 1017 30.03 847 25.01 21.4 70.5 36 5.8 42.5
08:40 1017 30.03 846 24.98 21.8 71.3 34 5.5 41.9
08:45 1017 30.03 846 24.98 22.2 71.9 35 6.2 43.2
08:50 1017 30.03 846 24.98 22.7 72.8 35 6.7 44
08:55 1017 30.03 846 24.98 23.1 73.5 33 6 42.7
09:00 1017 30.03 846 24.98 23.2 73.8 31 5.6 42
09:05 1017 30.03 846 24.98 23.6 74.5 31 5.9 42.6
09:10 1017 30.03 846 24.98 24 75.3 30 5.4 41.8
09:15 1017 30.03 846 24.98 23.9 75 30 5.3 41.5
09:20 1017 30.03 846 24.98 24.3 75.8 28 4.9 40.7
09:25 1017 30.03 846 24.98 25.2 77.3 25 3.9 38.9
09:30 1017 30.03 846 24.98 25.2 77.4 26 4.6 40.3
09:35 1017 30.03 846 24.98 25.8 78.4 23 3.3 37.9
09:40 1017 30.03 846 24.98 25.4 77.8 25 4.2 39.5
09:45 1017 30.03 846 24.98 24.9 76.8 25 4 39.2
09:50 1017 30.03 846 24.98 25 76.9 25 4.1 39.3
09:55 1017 30.03 846 24.98 25.2 77.3 25 3.7 38.7
10:00 1017 30.03 846 24.98 25.7 78.2 24 3.9 39
10:05 1017 30.03 846 24.98 26 78.8 24 4.4 39.9
10:10 1017 30.03 846 24.98 26 78.9 22 2.9 37.1
10:15 1017 30.03 846 24.98 26.2 79.1 23 4 39.1
10:20 1017 30.03 846 24.98 26.6 79.9 24 4.4 39.9
10:25 1017 30.03 846 24.98 27.3 81.2 22 4.4 39.9
10:30 1017 30.03 846 24.98 27 80.5 23 4.6 40.3
10:35 1017 30.03 846 24.98 27.5 81.4 23 4.8 40.7
10:40 1016 30 846 24.98 27.6 81.7 23 4.7 40.4
10:45 1016 30 846 24.98 27.5 81.5 23 4.9 40.8
10:50 1016 30 846 24.98 27 80.6 24 4.9 40.8
10:55 1016 30 846 24.98 27.1 80.7 21 3.4 38.2
11:00 1016 30 846 24.98 27.8 82 21 3.8 38.8
11:05 1016 30 846 24.98 26.8 80.2 23 4.1 39.5
11:10 1016 30 846 24.98 27.2 80.9 22 4.1 39.3
11:15 1016 30 845 24.95 27.1 80.8 22 4 39.2
11:20 1016 30 845 24.95 27.6 81.7 20 2.8 37.1
11:25 1016 30 845 24.95 26.8 80.2 21 3.2 37.7
11:30 1016 30 845 24.95 26.2 79.1 18 0.6 33
11:35 1016 30 845 24.95 27.2 81 18 0.8 33.4
11:40 1016 30 845 24.95 27.8 82 19 2 35.7
11:45 1016 30 845 24.95 28 82.4 20 3 37.5
11:50 1016 30 845 24.95 27.6 81.6 21 3.3 38
11:55 1016 30 845 24.95 27.3 81.1 20 2.3 36.2
12:00 1016 30 845 24.95 28 82.5 19 2.2 36
12:05 1016 30 845 24.95 28.9 84.1 17 2 35.6
12:10 1016 30 845 24.95 28.5 83.4 17 1.4 34.6
12:15 1016 30 845 24.95 28.7 83.7 17 1.4 34.6
12:20 1016 30 845 24.95 28.9 84 15 -0.1 31.8
12:25 1016 30 845 24.95 28.4 83.1 14 -1.2 29.9
12:30 1016 30 845 24.95 27.1 80.8 20 2.7 36.9
12:35 1016 30 845 24.95 26.4 79.5 22 2.9 37.3
12:40 1016 30 845 24.95 25.1 77.2 26 4.4 39.9
12:45 1016 30 845 24.95 24.3 75.8 25 3.5 38.4
12:50 1016 30 845 24.95 24.7 76.5 24 3.1 37.6
12:55 1016 30 845 24.95 24.9 76.8 24 3 37.4
13:00 1016 30 845 24.95 25.1 77.1 23 3 37.4
13:05 1016 30 845 24.95 25.1 77.1 24 3.1 37.6
13:10 1016 30 845 24.95 25.2 77.4 22 2.4 36.2
13:15 1016 30 845 24.95 24.5 76 24 2.8 37.1
13:20 1016 30 845 24.95 24.6 76.3 24 2.7 36.8
13:25 1016 30 845 24.95 25.1 77.2 24 3.1 37.7
13:30 1016 30 845 24.95 24.9 76.9 24 3.3 38
13:35 1016 30 845 24.95 25.5 77.8 21 1.8 35.2
13:40 1016 30 845 24.95 26.3 79.4 19 1.4 34.6
13:45 1016 30 845 24.95 27.2 81 18 1.3 34.3
13:50 1016 30 845 24.95 27.4 81.4 18 1.6 34.9
13:55 1016 30 845 24.95 27 80.6 19 1.4 34.5
14:00 1016 30 845 24.95 26.8 80.2 20 2.4 36.4
14:05 1016 30 845 24.95 26.3 79.4 20 2.1 35.8
14:10 1016 30 845 24.95 26.2 79.1 21 2.6 36.7
14:15 1016 30 845 24.95 26.2 79.1 21 2.7 36.9
14:20 1016 30 845 24.95 26.5 79.8 22 3.2 37.8
14:25 1016 30 845 24.95 26.6 79.8 24 4.5 40.1
14:30 1016 30 845 24.95 25.9 78.6 24 4 39.2
14:35 1016 30 845 24.95 25.7 78.3 23 3.4 38.2
14:40 1016 30 845 24.95 26 78.8 22 3.1 37.6
14:45 1016 30 845 24.95 26 78.7 23 3.6 38.4
14:50 1016 30 845 24.95 26 78.8 23 3.6 38.4
14:55 1016 30 845 24.95 25.8 78.5 24 4.1 39.5
15:00 1016 30 846 24.98 25.5 78 26 4.9 40.8
15:05 1017 30.03 846 24.98 25 77.1 29 5.9 42.7
15:10 1017 30.03 846 24.98 24.7 76.4 31 6.7 44
15:15 1016 30 846 24.98 24.4 76 27 4.4 39.9
15:20 1016 30 845 24.95 24.7 76.4 27 4.9 40.8
15:25 1016 30 846 24.98 24.8 76.7 29 5.8 42.4
15:30 1016 30 845 24.95 23.9 75 33 6.9 44.4
15:35 1016 30 845 24.95 23.6 74.4 32 6 42.8
15:40 1016 30 845 24.95 23.6 74.5 27 3.9 39
15:45 1016 30 846 24.98 23.5 74.4 32 6.2 43.2
15:50 1017 30.03 846 24.98 22.9 73.1 31 5.2 41.4
15:55 1017 30.03 846 24.98 23.1 73.5 28 3.8 38.8
16:00 1016 30 845 24.95 23.9 75.1 23 1.9 35.5
16:05 1016 30 845 24.95 24.6 76.3 24 3.2 37.7
16:10 1016 30 845 24.95 25.6 78.1 22 2.5 36.4
16:15 1016 30 845 24.95 25.2 77.3 27 5.3 41.5
16:20 1016 30 845 24.95 24.5 76 29 5.7 42.3
16:25 1016 30 845 24.95 24.5 76.1 29 5.6 42.1
16:30 1016 30 845 24.95 24.6 76.2 28 5.3 41.6
16:35 1016 30 845 24.95 24.1 75.3 29 5.3 41.6
16:40 1016 30 845 24.95 23.7 74.7 27 3.7 38.6
16:45 1016 30 845 24.95 23.7 74.6 32 6.1 43
16:50 1015 29.97 845 24.95 23.2 73.8 33 6.3 43.3
16:55 1015 29.97 845 24.95 23.4 74 32 5.8 42.4
17:00 1015 29.97 845 24.95 24.3 75.8 27 4.4 40
17:05 1015 29.97 845 24.95 24.9 76.9 25 3.9 39
17:10 1015 29.97 844 24.92 25.1 77.3 24 3.7 38.6
17:15 1015 29.97 844 24.92 25.4 77.6 24 3.4 38
17:20 1015 29.97 844 24.92 25.6 78.1 24 3.7 38.6
17:25 1015 29.97 844 24.92 25.8 78.5 24 4.1 39.4
17:30 1015 29.97 844 24.92 25.9 78.7 22 3 37.5
17:35 1015 29.97 844 24.92 26 78.8 21 2.4 36.3
17:40 1015 29.97 844 24.92 26.1 79 22 2.7 36.9
17:45 1015 29.97 844 24.92 26.2 79.2 21 2.6 36.6
17:50 1015 29.97 844 24.92 26.4 79.5 21 2.6 36.7
17:55 1015 29.97 844 24.92 26.5 79.7 20 1.9 35.5
18:00 1015 29.97 844 24.92 26.6 79.8 20 2.1 35.7
18:05 1015 29.97 844 24.92 26.7 80 21 2.7 36.9
18:10 1015 29.97 844 24.92 26.7 80 19 1.7 35
18:15 1015 29.97 844 24.92 26.4 79.5 21 2.7 36.8
18:20 1015 29.97 844 24.92 25.8 78.5 21 2.4 36.3
18:25 1015 29.97 844 24.92 25.4 77.7 21 1.5 34.7
18:30 1015 29.97 844 24.92 25.5 77.9 20 0.9 33.5
18:35 1015 29.97 844 24.92 25.7 78.2 21 1.7 35
18:40 1015 29.97 844 24.92 25.5 77.9 21 1.6 34.9
18:45 1015 29.97 844 24.92 25.4 77.8 21 1.6 34.8
18:50 1014 29.94 844 24.92 25.5 77.9 21 2 35.6
18:55 1014 29.94 844 24.92 25.3 77.5 23 2.7 36.9
19:00 1014 29.94 844 24.92 25.1 77.1 22 2 35.6
19:05 1014 29.94 844 24.92 25.1 77.1 27 4.8 40.6
19:10 1014 29.94 844 24.92 24.9 76.9 22 2.3 36.1
19:15 1014 29.94 844 24.92 25 77 25 4.1 39.4
19:20 1014 29.94 844 24.92 25.2 77.3 24 3.3 38
19:25 1014 29.94 844 24.92 25.1 77.2 23 3 37.4
19:30 1014 29.94 843 24.89 24.7 76.4 25 3.7 38.6
19:35 1014 29.94 843 24.89 24.3 75.7 26 3.5 38.4
19:40 1014 29.94 843 24.89 24.3 75.8 24 2.8 37.1
19:45 1014 29.94 843 24.89 24.4 75.9 25 3.1 37.6
19:50 1014 29.94 843 24.89 24.1 75.4 26 3.6 38.5
19:55 1014 29.94 843 24.89 23.9 75 25 2.9 37.2
20:00 1014 29.94 843 24.89 23.8 74.8 26 3.2 37.7
20:05 1014 29.94 843 24.89 23.6 74.5 26 3.1 37.6
20:10 1014 29.94 844 24.92 23.4 74.2 27 3.4 38.1
20:15 1015 29.97 844 24.92 23.3 74 29 4.7 40.4
20:20 1015 29.97 844 24.92 22.8 73.1 30 4.5 40.1
20:25 1015 29.97 844 24.92 22.6 72.6 27 3.1 37.5
20:30 1015 29.97 844 24.92 23.1 73.6 27 3.4 38.2
20:35 1015 29.97 844 24.92 23.6 74.4 25 2.6 36.7
20:40 1015 29.97 844 24.92 23.9 74.9 26 3.4 38.2
20:45 1015 29.97 844 24.92 23.5 74.4 27 3.6 38.5
20:50 1015 29.97 844 24.92 23.2 73.7 28 3.7 38.6
20:55 1015 29.97 844 24.92 22.9 73.2 30 4.8 40.6
21:00 1015 29.97 844 24.92 22.5 72.5 32 5.3 41.5
21:05 1015 29.97 844 24.92 22.1 71.8 33 5.2 41.4
21:10 1015 29.97 844 24.92 21.6 70.9 36 6 42.9
21:15 1015 29.97 844 24.92 21 69.9 35 5.4 41.7
21:20 1015 29.97 845 24.95 20.9 69.7 38 6.2 43.2
21:25 1016 30 845 24.95 20.7 69.3 38 5.9 42.6
21:30 1016 30 845 24.95 20.8 69.5 36 5.4 41.7
21:35 1016 30 845 24.95 21.1 70 37 6.2 43.2
21:40 1016 30 845 24.95 20.9 69.5 38 6.4 43.4
21:45 1016 30 845 24.95 20.7 69.2 38 5.9 42.6
21:50 1016 30 845 24.95 20.8 69.5 38 6 42.8
21:55 1016 30 845 24.95 20.7 69.3 39 6.6 43.9
22:00 1016 30 845 24.95 20.5 68.8 40 6.5 43.7
22:05 1016 30 845 24.95 20.2 68.3 43 7.4 45.3
22:10 1016 30 845 24.95 19.6 67.3 45 7.5 45.4
22:15 1016 30 845 24.95 19.4 67 45 7.3 45.1
22:20 1016 30 845 24.95 19.3 66.7 44 6.8 44.2
22:25 1016 30 845 24.95 19.3 66.7 44 6.9 44.5
22:30 1016 30 845 24.95 19.2 66.5 45 7 44.7
22:35 1016 30 846 24.98 19 66.2 43 6.3 43.4
22:40 1016 30 846 24.98 19.2 66.6 43 6.5 43.6
22:45 1017 30.03 846 24.98 19.4 66.9 42 6.3 43.3
22:50 1017 30.03 846 24.98 19.5 67.1 41 6.2 43.1
22:55 1017 30.03 846 24.98 19.5 67.2 41 6.1 43
23:00 1017 30.03 846 24.98 19.5 67.1 42 6.4 43.6
23:05 1017 30.03 846 24.98 19 66.3 45 7 44.6
23:10 1017 30.03 846 24.98 18.3 65 49 7.4 45.3
23:15 1017 30.03 846 24.98 17.9 64.3 48 7 44.6
23:20 1017 30.03 847 25.01 17.8 64 49 7.1 44.8
23:25 1017 30.03 847 25.01 17.5 63.5 50 7 44.7
23:30 1017 30.03 847 25.01 17.2 63 50 6.9 44.4
23:35 1017 30.03 847 25.01 17.1 62.7 50 6.8 44.2
23:40 1017 30.03 847 25.01 17.1 62.8 49 6.5 43.6
23:45 1017 30.03 847 25.01 17.2 62.9 50 6.6 43.9
23:50 1017 30.03 847 25.01 17.2 62.9 48 6.3 43.3
23:55 1017 30.03 846 24.98 17.3 63.1 49 6.4 43.6
24:00 1017 30.03 847 25.01 17.2 62.9 49 6.4 43.5